Latest Weather Observations for Kurnell

IDN60801

Issued at 11:33 am EST Tuesday 27 September 2016 (issued every 30 minutes, with the page automatically refreshed every 10 minutes)

About weather observations | Map of weather stations | Latest weather observations for NSW | Other Formats
Station Details ID: 066043 Name: KURNELL AWS Lat: -34.00 Lon: 151.21 Height: 4.0 m
Data from the previous 72 hours. | See also: Recent months for locations in New South Wales
Date/Time
EST
Temp
°C
App
Temp
°C
Dew
Point
°C
Rel
Hum
%
Delta-T
°C
Wind Press
QNH
hPa
Press
MSL
hPa
Rain since
9am
mm
Dir  Spd
km/h
Gust
km/h
Spd
kts
Gust
kts
27/11:30am - - - - - WNW 17 20 9 11 - - -
27/11:00am - - - - - NNW 11 22 6 12 - - -
27/10:30am - - - - - N 17 22 9 12 - - -
27/10:00am - - - - - N 22 30 12 16 - - -
27/09:30am - - - - - N 22 28 12 15 - - -
27/09:00am - - - - - N 24 30 13 16 - - -
27/08:30am - - - - - N 15 20 8 11 - - -
27/08:00am - - - - - N 19 26 10 14 - - -
27/07:30am - - - - - NW 20 24 11 13 - - -
27/07:00am - - - - - NNW 17 20 9 11 - - -
27/06:30am - - - - - N 13 15 7 8 - - -
27/06:00am - - - - - NNW 15 20 8 11 - - -
27/05:30am - - - - - NW 17 20 9 11 - - -
27/05:00am - - - - - NW 22 26 12 14 - - -
27/04:30am - - - - - NW 24 28 13 15 - - -
27/04:00am - - - - - NW 26 32 14 17 - - -
27/03:30am - - - - - WNW 22 26 12 14 - - -
27/03:00am - - - - - WNW 28 32 15 17 - - -
27/02:30am - - - - - WNW 26 30 14 16 - - -
27/02:00am - - - - - WNW 30 33 16 18 - - -
27/01:30am - - - - - W 32 39 17 21 - - -
27/01:00am - - - - - W 28 33 15 18 - - -
27/12:30am - - - - - W 28 33 15 18 - - -
27/12:00am - - - - - WNW 30 32 16 17 - - -
 
Date/Time
EST
Temp
°C
App
Temp
°C
Dew
Point
°C
Rel
Hum
%
Delta-T
°C
Wind Press
QNH
hPa
Press
MSL
hPa
Rain since
9am
mm
Dir  Spd
km/h
Gust
km/h
Spd
kts
Gust
kts
26/11:30pm - - - - - WNW 26 30 14 16 - - -
26/11:00pm - - - - - WNW 26 30 14 16 - - -
26/10:30pm - - - - - WNW 28 33 15 18 - - -
26/10:00pm - - - - - WNW 24 28 13 15 - - -
26/09:30pm - - - - - WNW 26 28 14 15 - - -
26/09:00pm - - - - - W 24 30 13 16 - - -
26/08:30pm - - - - - W 15 17 8 9 - - -
26/08:00pm - - - - - WSW 11 17 6 9 - - -
26/07:30pm - - - - - SW 9 11 5 6 - - -
26/07:00pm - - - - - SW 11 15 6 8 - - -
26/06:30pm - - - - - SW 9 13 5 7 - - -
26/06:00pm - - - - - SW 13 15 7 8 - - -
26/05:30pm - - - - - S 13 15 7 8 - - -
26/05:00pm - - - - - S 17 20 9 11 - - -
26/04:30pm - - - - - S 15 22 8 12 - - -
26/04:00pm - - - - - SSE 15 20 8 11 - - -
26/03:30pm - - - - - SE 19 26 10 14 - - -
26/03:00pm - - - - - SE 19 26 10 14 - - -
26/02:30pm - - - - - SE 19 26 10 14 - - -
26/02:00pm - - - - - SE 19 26 10 14 - - -
26/01:30pm - - - - - SE 17 22 9 12 - - -
26/01:00pm - - - - - SSE 19 26 10 14 - - -
26/12:30pm - - - - - SE 19 26 10 14 - - -
26/12:00pm - - - - - SSE 17 26 9 14 - - -
26/11:30am - - - - - S 17 24 9 13 - - -
26/11:00am - - - - - SSW 17 28 9 15 - - -
26/10:30am - - - - - WSW 20 28 11 15 - - -
26/10:00am - - - - - SW 24 32 13 17 - - -
26/09:30am - - - - - W 26 35 14 19 - - -
26/09:00am - - - - - WSW 28 33 15 18 - - -
26/08:30am - - - - - W 26 37 14 20 - - -
26/08:00am - - - - - W 32 35 17 19 - - -
26/07:30am - - - - - W 32 35 17 19 - - -
26/07:00am - - - - - W 30 35 16 19 - - -
26/06:30am - - - - - WSW 32 39 17 21 - - -
26/06:00am - - - - - WSW 24 33 13 18 - - -
26/05:30am - - - - - WSW 26 33 14 18 - - -
26/05:00am - - - - - SW 22 30 12 16 - - -
26/04:30am - - - - - SW 22 30 12 16 - - -
26/04:00am - - - - - SW 26 32 14 17 - - -
26/03:30am - - - - - SW 22 28 12 15 - - -
26/03:00am - - - - - SSW 26 32 14 17 - - -
26/02:30am - - - - - SW 26 33 14 18 - - -
26/02:00am - - - - - SSW 24 33 13 18 - - -
26/01:30am - - - - - SSW 26 32 14 17 - - -
26/01:00am - - - - - SSW 28 35 15 19 - - -
26/12:30am - - - - - SW 26 35 14 19 - - -
26/12:00am - - - - - SW 22 32 12 17 - - -
 
Date/Time
EST
Temp
°C
App
Temp
°C
Dew
Point
°C
Rel
Hum
%
Delta-T
°C
Wind Press
QNH
hPa
Press
MSL
hPa
Rain since
9am
mm
Dir  Spd
km/h
Gust
km/h
Spd
kts
Gust
kts
25/11:30pm - - - - - WSW 22 30 12 16 - - -
25/11:00pm - - - - - WSW 19 26 10 14 - - -
25/10:30pm - - - - - SW 26 32 14 17 - - -
25/10:00pm - - - - - SW 17 22 9 12 - - -
25/09:30pm - - - - - WSW 17 20 9 11 - - -
25/09:00pm - - - - - SW 20 28 11 15 - - -
25/08:30pm - - - - - SSW 26 35 14 19 - - -
25/08:00pm - - - - - S 28 35 15 19 - - -
25/07:30pm - - - - - SSW 22 28 12 15 - - -
25/07:00pm - - - - - SSW 19 24 10 13 - - -
25/06:30pm - - - - - SSW 17 24 9 13 - - -
25/06:00pm - - - - - SSW 30 43 16 23 - - -
25/05:30pm - - - - - S 22 33 12 18 - - -
25/05:00pm - - - - - SSW 26 39 14 21 - - -
25/04:30pm - - - - - SSW 17 24 9 13 - - -
25/04:00pm - - - - - SSW 20 28 11 15 - - -
25/03:30pm - - - - - S 17 26 9 14 - - -
25/03:00pm - - - - - S 26 33 14 18 - - -
25/02:30pm - - - - - S 20 33 11 18 - - -
25/02:00pm - - - - - S 13 19 7 10 - - -
25/01:30pm - - - - - ENE 9 11 5 6 - - -
25/01:00pm - - - - - S 19 26 10 14 - - -
25/12:30pm - - - - - WSW 13 20 7 11 - - -
25/12:00pm - - - - - W 22 32 12 17 - - -
25/11:30am - - - - - W 20 26 11 14 - - -
25/11:00am - - - - - WNW 22 28 12 15 - - -
25/10:30am - - - - - NW 19 24 10 13 - - -
25/10:00am - - - - - WNW 20 28 11 15 - - -
25/09:30am - - - - - WNW 17 26 9 14 - - -
25/09:00am - - - - - NW 13 17 7 9 - - -
25/08:30am - - - - - NW 17 20 9 11 - - -
25/08:00am - - - - - NNW 20 26 11 14 - - -
25/07:30am - - - - - NNW 17 20 9 11 - - -
25/07:00am - - - - - NNW 17 20 9 11 - - -
25/06:30am - - - - - NNW 17 22 9 12 - - -
25/06:00am - - - - - NNW 15 19 8 10 - - -
25/05:30am - - - - - N 13 15 7 8 - - -
25/05:00am - - - - - NNW 13 17 7 9 - - -
25/04:30am - - - - - NNW 19 26 10 14 - - -
25/04:00am - - - - - NW 30 37 16 20 - - -
25/03:30am - - - - - WNW 19 22 10 12 - - -
25/03:00am - - - - - NW 20 24 11 13 - - -
25/02:30am - - - - - WNW 17 19 9 10 - - -
25/02:00am - - - - - NW 13 15 7 8 - - -
25/01:30am - - - - - NW 11 13 6 7 - - -
25/01:00am - - - - - NW 13 13 7 7 - - -
25/12:30am - - - - - NNW 11 15 6 8 - - -
25/12:00am - - - - - NNW 9 13 5 7 - - -
 
Date/Time
EST
Temp
°C
App
Temp
°C
Dew
Point
°C
Rel
Hum
%
Delta-T
°C
Wind Press
QNH
hPa
Press
MSL
hPa
Rain since
9am
mm
Dir  Spd
km/h
Gust
km/h
Spd
kts
Gust
kts
24/11:30pm - - - - - NNW 13 15 7 8 - - -
24/11:00pm - - - - - N 13 17 7 9 - - -
24/10:30pm - - - - - N 13 17 7 9 - - -
24/10:00pm - - - - - NNW 11 13 6 7 - - -
24/09:30pm - - - - - NNE 13 17 7 9 - - -
24/09:00pm - - - - - NNE 13 19 7 10 - - -
24/08:30pm - - - - - NE 9 11 5 6 - - -
24/08:00pm - - - - - NE 11 15 6 8 - - -
24/07:30pm - - - - - ENE 15 17 8 9 - - -
24/07:00pm - - - - - ENE 13 15 7 8 - - -
24/06:30pm - - - - - ENE 13 17 7 9 - - -
24/06:00pm - - - - - NE 17 20 9 11 - - -
24/05:30pm - - - - - ENE 19 24 10 13 - - -
24/05:00pm - - - - - E 17 22 9 12 - - -
24/04:30pm - - - - - E 17 20 9 11 - - -
24/04:00pm - - - - - E 17 26 9 14 - - -
24/03:30pm - - - - - E 19 24 10 13 - - -
24/03:00pm - - - - - E 19 24 10 13 - - -
24/02:30pm - - - - - E 20 28 11 15 - - -
24/02:00pm - - - - - ESE 19 26 10 14 - - -
24/01:30pm - - - - - ESE 15 19 8 10 - - -
24/01:00pm - - - - - ESE 13 19 7 10 - - -
24/12:30pm - - - - - SE 15 19 8 10 - - -
24/12:00pm - - - - - SSE 15 20 8 11 - - -

Other Formats:

Comma delimited format used in spreadsheet applications
http://www.bom.gov.au/fwo/IDN60801/IDN60801.95756.axf

JavaScript Object Notation format (JSON) in row-major order
http://www.bom.gov.au/fwo/IDN60801/IDN60801.95756.json